createdAt,value
2018-09-30T00:01:27.533Z,10.17
2018-09-30T00:05:30.270Z,10.53
2018-09-30T00:09:32.987Z,9.73
2018-09-30T00:13:35.671Z,10.23
2018-09-30T00:17:38.398Z,10.03
2018-09-30T00:21:41.064Z,10.97
2018-09-30T00:25:49.396Z,10.80
2018-09-30T00:29:52.150Z,11.33
2018-09-30T00:34:00.537Z,11.70
2018-09-30T00:38:03.223Z,10.87
2018-09-30T00:42:06.438Z,10.83
2018-09-30T00:46:09.209Z,10.70
2018-09-30T00:50:11.977Z,11.20
2018-09-30T00:54:15.015Z,10.00
2018-09-30T00:58:17.679Z,10.97
2018-09-30T01:02:20.400Z,11.10
2018-09-30T01:06:23.271Z,10.30
2018-09-30T01:10:25.973Z,10.90
2018-09-30T01:14:28.704Z,10.80
2018-09-30T01:18:31.446Z,11.50
2018-09-30T01:22:34.158Z,10.13
2018-09-30T01:26:36.904Z,10.80
2018-09-30T01:30:39.665Z,11.63
2018-09-30T01:34:42.421Z,11.53
2018-09-30T01:38:45.250Z,10.40
2018-09-30T01:42:48.108Z,11.07
2018-09-30T01:46:50.781Z,10.33
2018-09-30T01:50:53.579Z,10.80
2018-09-30T01:54:56.224Z,10.30
2018-09-30T01:58:59.263Z,10.63
2018-09-30T02:03:02.015Z,11.10
2018-09-30T02:07:04.718Z,11.20
2018-09-30T02:11:07.465Z,11.67
2018-09-30T02:15:10.170Z,10.97
2018-09-30T02:19:12.994Z,10.33
2018-09-30T02:23:15.720Z,11.63
2018-09-30T02:27:18.469Z,9.80
2018-09-30T02:31:21.177Z,10.07
2018-09-30T02:35:23.962Z,9.97
2018-09-30T02:39:26.716Z,9.70
2018-09-30T02:43:29.818Z,10.47
2018-09-30T02:47:32.671Z,10.43
2018-09-30T02:51:35.427Z,9.50
2018-09-30T02:55:38.979Z,10.00
2018-09-30T02:59:41.725Z,9.97
2018-09-30T03:03:44.444Z,9.30
2018-09-30T03:07:52.891Z,9.80
2018-09-30T03:11:55.665Z,8.70
2018-09-30T03:15:58.363Z,8.50
2018-09-30T03:20:01.187Z,8.93
2018-09-30T03:24:03.947Z,9.53
2018-09-30T03:28:06.707Z,8.67
2018-09-30T03:32:09.463Z,8.80
2018-09-30T03:36:12.207Z,8.93
2018-09-30T03:40:14.962Z,8.57
2018-09-30T03:44:17.711Z,7.73
2018-09-30T03:48:20.491Z,8.57
2018-09-30T03:52:23.195Z,7.83
2018-09-30T03:56:25.937Z,8.83
2018-09-30T04:00:28.673Z,8.17
2018-09-30T04:04:31.366Z,8.03
2018-09-30T04:08:34.101Z,7.73
2018-09-30T04:12:36.915Z,7.80
2018-09-30T04:16:39.632Z,8.13
2018-09-30T04:20:42.374Z,8.47
2018-09-30T04:24:45.107Z,7.63
2018-09-30T04:28:47.793Z,7.30
2018-09-30T04:32:50.444Z,8.00
2018-09-30T04:36:53.390Z,7.27
2018-09-30T04:40:56.139Z,8.20
2018-09-30T04:44:58.860Z,8.23
2018-09-30T04:49:01.596Z,7.90
2018-09-30T04:53:04.305Z,7.87
2018-09-30T04:57:07.078Z,7.87
2018-09-30T05:01:09.926Z,8.17
2018-09-30T05:05:19.366Z,7.67
2018-09-30T05:09:22.096Z,7.90
2018-09-30T05:13:24.829Z,9.17
2018-09-30T05:17:27.720Z,7.10
2018-09-30T05:21:30.525Z,7.20
2018-09-30T05:25:33.365Z,6.87
2018-09-30T05:29:36.079Z,8.20
2018-09-30T05:33:38.841Z,7.83
2018-09-30T05:37:41.580Z,8.00
2018-09-30T05:41:44.297Z,7.53
2018-09-30T05:45:47.049Z,7.47
2018-09-30T05:49:49.831Z,7.73
2018-09-30T05:53:52.547Z,7.57
2018-09-30T05:57:55.472Z,7.80
2018-09-30T06:01:58.245Z,8.93
2018-09-30T06:06:00.984Z,7.87
2018-09-30T06:10:03.838Z,7.73
2018-09-30T06:14:06.759Z,6.90
2018-09-30T06:18:09.323Z,6.20
2018-09-30T06:22:12.074Z,6.33
2018-09-30T06:26:14.915Z,6.33
2018-09-30T06:30:17.707Z,6.60
2018-09-30T06:34:20.499Z,6.80
2018-09-30T06:38:23.231Z,6.33
2018-09-30T06:42:26.021Z,6.27
2018-09-30T06:46:28.781Z,7.47
2018-09-30T06:50:32.100Z,5.67
2018-09-30T06:54:34.897Z,5.70
2018-09-30T06:58:37.658Z,6.30
2018-09-30T07:02:40.404Z,6.53
2018-09-30T07:06:43.177Z,5.90
2018-09-30T07:10:45.995Z,6.27
2018-09-30T07:14:48.704Z,5.57
2018-09-30T07:18:52.563Z,5.57
2018-09-30T07:22:55.319Z,5.87
2018-09-30T07:26:58.206Z,6.20
2018-09-30T07:31:01.023Z,5.80
2018-09-30T07:35:03.911Z,10.23
2018-09-30T07:39:08.241Z,5.90
2018-09-30T07:43:11.034Z,6.30
2018-09-30T07:47:13.807Z,6.17
2018-09-30T07:51:16.488Z,6.00
2018-09-30T07:55:19.403Z,6.10
2018-09-30T07:59:22.179Z,6.30
2018-09-30T08:03:25.099Z,5.97
2018-09-30T08:07:27.893Z,5.47
2018-09-30T08:11:30.764Z,6.20
2018-09-30T08:15:33.515Z,5.53
2018-09-30T08:19:37.387Z,8.30
2018-09-30T08:23:40.223Z,4.60
2018-09-30T08:27:43.118Z,4.53
2018-09-30T08:31:45.972Z,4.57
2018-09-30T08:35:54.192Z,5.97
2018-09-30T08:39:57.112Z,5.03
2018-09-30T08:43:59.903Z,4.73
2018-09-30T08:48:02.700Z,4.40
2018-09-30T08:52:05.557Z,4.30
2018-09-30T08:56:08.442Z,4.00
2018-09-30T09:00:11.281Z,4.23
2018-09-30T09:04:14.064Z,3.63
2018-09-30T09:08:16.995Z,4.20
2018-09-30T09:12:20.756Z,4.10
2018-09-30T09:16:23.557Z,4.50
2018-09-30T09:20:26.883Z,5.37
2018-09-30T09:24:29.683Z,3.70
2018-09-30T09:28:32.501Z,4.40
2018-09-30T09:32:37.571Z,4.03
2018-09-30T09:36:40.403Z,4.17
2018-09-30T09:40:43.226Z,5.20
2018-09-30T09:44:46.141Z,4.50
2018-09-30T09:48:48.955Z,4.73
2018-09-30T09:52:51.875Z,4.13
2018-09-30T09:56:54.652Z,4.40
2018-09-30T10:01:02.025Z,4.77
2018-09-30T10:05:04.920Z,7.53
2018-09-30T10:09:07.776Z,4.50
2018-09-30T10:13:10.611Z,4.17
2018-09-30T10:17:13.327Z,3.63
2018-09-30T10:21:16.081Z,4.80
2018-09-30T10:25:18.910Z,4.20
2018-09-30T10:29:21.659Z,3.70
2018-09-30T10:33:25.175Z,3.80
2018-09-30T10:37:28.774Z,4.27
2018-09-30T10:41:31.582Z,3.53
2018-09-30T10:45:34.476Z,4.10
2018-09-30T10:49:37.391Z,4.83
2018-09-30T10:53:40.161Z,3.30
2018-09-30T10:57:43.981Z,3.27
2018-09-30T11:01:46.899Z,3.67
2018-09-30T11:05:49.788Z,3.37
2018-09-30T11:09:52.674Z,3.50
2018-09-30T11:13:55.371Z,6.13
2018-09-30T11:17:58.220Z,17.87
2018-09-30T11:22:01.000Z,4.07
2018-09-30T11:26:03.854Z,4.27
2018-09-30T11:30:06.755Z,3.97
2018-09-30T11:34:09.588Z,4.40
2018-09-30T11:38:12.371Z,4.10
2018-09-30T11:42:15.288Z,3.93
2018-09-30T11:46:18.091Z,3.53
2018-09-30T11:50:21.495Z,3.40
2018-09-30T11:54:24.289Z,2.37
2018-09-30T11:58:27.167Z,2.50
2018-09-30T12:02:30.024Z,2.63
2018-09-30T12:06:33.515Z,3.67
2018-09-30T12:10:36.332Z,4.77
2018-09-30T12:14:39.118Z,3.83
2018-09-30T12:18:41.874Z,3.90
2018-09-30T12:22:44.650Z,3.43
2018-09-30T12:26:47.521Z,3.20
2018-09-30T12:30:50.449Z,3.17
2018-09-30T12:34:53.351Z,3.17
2018-09-30T12:38:56.139Z,3.30
2018-09-30T12:42:59.029Z,3.27
2018-09-30T12:47:01.910Z,3.00
2018-09-30T12:51:04.806Z,3.40
2018-09-30T12:55:07.695Z,3.20
2018-09-30T12:59:10.512Z,7.30
2018-09-30T13:03:13.233Z,3.43
2018-09-30T13:07:16.032Z,2.70
2018-09-30T13:11:18.830Z,2.77
2018-09-30T13:15:21.606Z,3.10
2018-09-30T13:19:24.479Z,3.37
2018-09-30T13:23:27.270Z,5.20
2018-09-30T13:27:30.026Z,3.60
2018-09-30T13:31:33.451Z,3.57
2018-09-30T13:35:36.224Z,3.70
2018-09-30T13:39:38.990Z,3.47
2018-09-30T13:43:41.817Z,3.20
2018-09-30T13:47:44.575Z,3.27
2018-09-30T13:51:47.559Z,3.47
2018-09-30T13:55:50.455Z,3.77
2018-09-30T13:59:53.176Z,3.80
2018-09-30T14:03:55.914Z,3.93
2018-09-30T14:07:58.703Z,5.47
2018-09-30T14:12:01.587Z,4.53
2018-09-30T14:16:04.317Z,4.23
2018-09-30T14:20:07.308Z,3.87
2018-09-30T14:24:10.102Z,4.47
2018-09-30T14:28:12.850Z,4.23
2018-09-30T14:32:15.601Z,4.43
2018-09-30T14:36:18.440Z,4.53
2018-09-30T14:40:22.229Z,4.53
2018-09-30T14:44:25.018Z,4.80
2018-09-30T14:48:27.935Z,4.53
2018-09-30T14:52:30.733Z,4.50
2018-09-30T14:56:34.423Z,4.37
2018-09-30T15:00:37.212Z,3.97
2018-09-30T15:04:40.000Z,4.20
2018-09-30T15:08:42.830Z,5.40
2018-09-30T15:12:45.626Z,4.70
2018-09-30T15:16:54.947Z,3.97
2018-09-30T15:20:57.725Z,4.20
2018-09-30T15:25:00.670Z,4.13
2018-09-30T15:29:04.114Z,3.80
2018-09-30T15:33:07.083Z,3.50
2018-09-30T15:37:10.033Z,4.63
2018-09-30T15:41:12.713Z,3.67
2018-09-30T15:45:15.450Z,4.80
2018-09-30T15:49:18.280Z,5.47
2018-09-30T15:53:21.103Z,5.77
2018-09-30T15:57:23.903Z,5.00
2018-09-30T16:01:26.644Z,4.80
2018-09-30T16:05:29.491Z,5.87
2018-09-30T16:09:32.249Z,6.07
2018-09-30T16:13:34.922Z,5.80
2018-09-30T16:17:37.782Z,7.10
2018-09-30T16:21:40.477Z,6.50
2018-09-30T16:25:43.325Z,6.73
2018-09-30T16:29:46.818Z,6.50
2018-09-30T16:33:49.650Z,7.47
2018-09-30T16:37:52.584Z,7.27
2018-09-30T16:41:55.520Z,7.27
2018-09-30T16:45:58.408Z,7.80
2018-09-30T16:50:02.716Z,8.10
2018-09-30T16:54:06.532Z,8.17
2018-09-30T16:58:10.247Z,8.07
2018-09-30T17:02:13.969Z,8.87
2018-09-30T17:06:20.826Z,8.07
2018-09-30T17:10:24.202Z,8.97
2018-09-30T17:14:27.352Z,8.37
2018-09-30T17:18:30.307Z,8.57
2018-09-30T17:22:33.137Z,8.23
2018-09-30T17:26:35.981Z,8.03
2018-09-30T17:30:39.389Z,8.27
2018-09-30T17:34:42.447Z,10.30
2018-09-30T17:38:46.443Z,8.60
2018-09-30T17:42:49.294Z,9.20
2018-09-30T17:46:53.247Z,8.73
2018-09-30T17:50:56.063Z,9.17
2018-09-30T17:54:58.873Z,9.00
2018-09-30T17:59:01.872Z,9.47
2018-09-30T18:03:04.764Z,9.40
2018-09-30T18:07:07.629Z,10.33
2018-09-30T18:11:10.686Z,12.27
2018-09-30T18:15:13.641Z,9.53
2018-09-30T18:19:16.571Z,9.87
2018-09-30T18:23:19.549Z,9.97
2018-09-30T18:27:22.317Z,9.80
2018-09-30T18:31:25.153Z,8.97
2018-09-30T18:35:28.301Z,8.93
2018-09-30T18:39:31.266Z,8.23
2018-09-30T18:43:34.321Z,8.93
2018-09-30T18:47:37.278Z,9.97
2018-09-30T18:51:40.364Z,9.97
2018-09-30T18:55:43.906Z,9.83
2018-09-30T18:59:46.772Z,10.13
2018-09-30T19:03:49.595Z,9.60
2018-09-30T19:07:52.425Z,10.03
2018-09-30T19:11:55.406Z,9.53
2018-09-30T19:15:58.640Z,9.77
2018-09-30T19:20:01.581Z,9.67
2018-09-30T19:24:05.971Z,9.50
2018-09-30T19:28:08.812Z,10.20
2018-09-30T19:32:11.825Z,9.40
2018-09-30T19:36:14.691Z,10.13
2018-09-30T19:40:17.721Z,10.17
2018-09-30T19:44:20.645Z,9.73
2018-09-30T19:48:23.742Z,9.50
2018-09-30T19:52:26.324Z,9.63
2018-09-30T19:56:30.394Z,9.97
2018-09-30T20:00:33.230Z,10.17
2018-09-30T20:04:36.144Z,10.57
2018-09-30T20:08:38.874Z,10.93
2018-09-30T20:12:41.894Z,10.67
2018-09-30T20:16:44.652Z,10.50
2018-09-30T20:20:47.635Z,10.03
2018-09-30T20:24:50.383Z,10.80
2018-09-30T20:28:53.886Z,9.93
2018-09-30T20:32:56.779Z,11.23
2018-09-30T20:36:59.926Z,11.17
2018-09-30T20:41:03.722Z,10.27
2018-09-30T20:45:08.286Z,10.40
2018-09-30T20:49:11.683Z,10.43
2018-09-30T20:53:14.919Z,10.57
2018-09-30T20:57:17.689Z,10.83
2018-09-30T21:01:20.701Z,10.90
2018-09-30T21:05:33.540Z,10.33
2018-09-30T21:09:36.809Z,10.23
2018-09-30T21:13:39.848Z,10.80
2018-09-30T21:17:42.961Z,10.50
2018-09-30T21:21:45.705Z,10.07
2018-09-30T21:25:48.477Z,11.07
2018-09-30T21:29:51.488Z,10.67
2018-09-30T21:33:54.289Z,10.53
2018-09-30T21:37:57.095Z,11.13
2018-09-30T21:41:59.854Z,13.00
2018-09-30T21:46:02.629Z,12.07
2018-09-30T21:50:05.460Z,11.07
2018-09-30T21:54:08.306Z,9.83
2018-09-30T21:58:11.308Z,10.63
2018-09-30T22:02:14.035Z,10.73
2018-09-30T22:06:16.861Z,10.97
2018-09-30T22:10:19.673Z,12.07
2018-09-30T22:14:22.437Z,11.13
2018-09-30T22:18:25.184Z,10.63
2018-09-30T22:22:27.968Z,10.30
2018-09-30T22:26:30.777Z,11.57
2018-09-30T22:30:33.990Z,11.27
2018-09-30T22:34:36.692Z,11.10
2018-09-30T22:38:39.423Z,11.20
2018-09-30T22:42:42.158Z,11.00
2018-09-30T22:46:45.017Z,11.00
2018-09-30T22:50:47.808Z,10.03
2018-09-30T22:54:50.606Z,10.07
2018-09-30T22:58:53.359Z,10.23
2018-09-30T23:02:56.177Z,9.77
2018-09-30T23:06:59.006Z,10.83
2018-09-30T23:11:01.767Z,9.93
2018-09-30T23:15:04.693Z,10.40
2018-09-30T23:19:07.468Z,9.80
2018-09-30T23:23:10.205Z,9.37
2018-09-30T23:27:13.067Z,8.90
2018-09-30T23:31:15.752Z,9.10
2018-09-30T23:35:18.490Z,8.63
2018-09-30T23:39:21.265Z,8.60
2018-09-30T23:43:24.003Z,8.57
2018-09-30T23:47:27.038Z,8.03
2018-09-30T23:51:29.818Z,7.20
2018-09-30T23:55:32.666Z,7.20
2018-09-30T23:59:35.500Z,7.67
